createdAt,value
2018-10-21T00:00:38.014Z,20.80
2018-10-21T00:03:06.158Z,22.40
2018-10-21T00:05:34.284Z,23.07
2018-10-21T00:08:02.425Z,21.02
2018-10-21T00:10:30.573Z,21.07
2018-10-21T00:12:58.730Z,20.35
2018-10-21T00:15:26.993Z,21.37
2018-10-21T00:17:55.041Z,21.65
2018-10-21T00:20:23.206Z,22.95
2018-10-21T00:22:51.357Z,21.10
2018-10-21T00:25:19.506Z,24.80
2018-10-21T00:27:47.650Z,21.87
2018-10-21T00:30:15.787Z,21.00
2018-10-21T00:32:49.082Z,20.48
2018-10-21T00:35:17.471Z,20.82
2018-10-21T00:37:45.625Z,22.00
2018-10-21T00:40:13.766Z,22.95
2018-10-21T00:42:41.905Z,22.45
2018-10-21T00:45:10.897Z,21.97
2018-10-21T00:47:39.094Z,23.30
2018-10-21T00:50:08.514Z,22.87
2018-10-21T00:52:36.669Z,23.22
2018-10-21T00:55:05.830Z,23.07
2018-10-21T00:57:34.011Z,23.37
2018-10-21T01:00:02.173Z,22.67
2018-10-21T01:02:30.333Z,23.43
2018-10-21T01:04:58.502Z,24.40
2018-10-21T01:07:26.757Z,23.05
2018-10-21T01:09:54.909Z,26.33
2018-10-21T01:12:23.067Z,27.40
2018-10-21T01:14:51.226Z,25.92
2018-10-21T01:17:19.402Z,25.32
2018-10-21T01:19:47.602Z,23.95
2018-10-21T01:22:15.754Z,23.75
2018-10-21T01:24:43.909Z,24.90
2018-10-21T01:27:12.188Z,25.50
2018-10-21T01:29:44.485Z,23.80
2018-10-21T01:32:12.633Z,25.70
2018-10-21T01:34:40.777Z,21.87
2018-10-21T01:37:08.983Z,20.70
2018-10-21T01:40:50.652Z,21.97
2018-10-21T01:43:20.055Z,22.10
2018-10-21T01:45:48.221Z,23.00
2018-10-21T01:48:17.576Z,23.15
2018-10-21T01:50:45.746Z,25.60
2018-10-21T01:53:14.897Z,24.57
2018-10-21T01:55:43.073Z,24.65
2018-10-21T01:58:11.329Z,25.62
2018-10-21T02:00:40.095Z,26.37
2018-10-21T02:03:08.369Z,26.47
2018-10-21T02:05:37.007Z,27.23
2018-10-21T02:08:05.349Z,25.57
2018-10-21T02:10:33.553Z,23.65
2018-10-21T02:13:01.789Z,26.05
2018-10-21T02:15:29.966Z,27.07
2018-10-21T02:17:58.121Z,25.27
2018-10-21T02:20:26.740Z,27.05
2018-10-21T02:22:54.920Z,23.57
2018-10-21T02:25:23.077Z,23.00
2018-10-21T02:27:51.952Z,23.10
2018-10-21T02:30:21.339Z,23.15
2018-10-21T02:32:50.264Z,24.45
2018-10-21T02:35:18.972Z,24.92
2018-10-21T02:37:47.369Z,25.70
2018-10-21T02:41:45.569Z,24.75
2018-10-21T02:44:21.145Z,26.12
2018-10-21T02:46:50.532Z,24.77
2018-10-21T02:49:19.241Z,24.87
2018-10-21T02:51:52.849Z,25.72
2018-10-21T02:54:24.237Z,25.12
2018-10-21T02:56:52.709Z,26.42
2018-10-21T02:59:21.218Z,26.60
2018-10-21T03:01:49.520Z,25.12
2018-10-21T03:04:17.710Z,26.35
2018-10-21T03:06:45.913Z,25.37
2018-10-21T03:09:14.227Z,25.85
2018-10-21T03:11:42.437Z,25.85
2018-10-21T03:14:10.674Z,26.73
2018-10-21T03:16:38.914Z,27.27
2018-10-21T03:19:07.078Z,25.97
2018-10-21T03:21:35.352Z,27.45
2018-10-21T03:24:03.539Z,27.82
2018-10-21T03:26:31.755Z,27.73
2018-10-21T03:29:00.001Z,27.10
2018-10-21T03:31:28.191Z,28.00
2018-10-21T03:33:56.558Z,28.10
2018-10-21T03:36:24.575Z,27.67
2018-10-21T03:38:52.737Z,28.92
2018-10-21T03:41:20.926Z,27.20
2018-10-21T03:43:49.144Z,28.75
2018-10-21T03:46:17.418Z,28.35
2018-10-21T03:48:45.483Z,27.30
2018-10-21T03:51:13.993Z,28.60
2018-10-21T03:53:42.216Z,27.80
2018-10-21T03:56:10.640Z,28.25
2018-10-21T03:58:38.880Z,25.77
2018-10-21T04:01:07.486Z,27.05
2018-10-21T04:03:35.771Z,26.57
2018-10-21T04:06:03.989Z,26.77
2018-10-21T04:08:32.166Z,25.88
2018-10-21T04:11:00.337Z,26.33
2018-10-21T04:13:28.549Z,27.00
2018-10-21T04:15:56.807Z,26.57
2018-10-21T04:18:24.969Z,26.68
2018-10-21T04:20:53.162Z,26.40
2018-10-21T04:23:21.324Z,27.00
2018-10-21T04:25:49.510Z,28.17
2018-10-21T04:28:17.786Z,27.10
2018-10-21T04:30:45.922Z,27.02
2018-10-21T04:33:23.283Z,27.77
2018-10-21T04:35:51.446Z,27.15
2018-10-21T04:39:29.956Z,27.85
2018-10-21T04:41:58.165Z,28.33
2018-10-21T04:44:26.372Z,27.53
2018-10-21T04:46:54.689Z,27.20
2018-10-21T04:49:22.658Z,28.95
2018-10-21T04:51:50.815Z,26.52
2018-10-21T04:54:18.981Z,28.30
2018-10-21T04:56:47.172Z,27.30
2018-10-21T04:59:15.337Z,29.32
2018-10-21T05:01:43.497Z,31.15
2018-10-21T05:04:11.731Z,29.95
2018-10-21T05:06:39.873Z,28.90
2018-10-21T05:09:08.017Z,28.02
2018-10-21T05:11:36.169Z,30.32
2018-10-21T05:14:04.321Z,28.65
2018-10-21T05:16:32.519Z,27.60
2018-10-21T05:19:00.602Z,27.95
2018-10-21T05:21:28.747Z,28.80
2018-10-21T05:23:56.963Z,28.80
2018-10-21T05:26:25.096Z,29.07
2018-10-21T05:28:53.241Z,26.43
2018-10-21T05:31:21.428Z,28.67
2018-10-21T05:33:49.844Z,27.60
2018-10-21T05:36:17.970Z,27.73
2018-10-21T05:38:46.121Z,27.80
2018-10-21T05:41:14.249Z,29.10
2018-10-21T05:43:42.402Z,27.30
2018-10-21T05:46:10.893Z,25.70
2018-10-21T05:48:39.053Z,27.07
2018-10-21T05:51:07.297Z,27.07
2018-10-21T05:53:35.492Z,26.80
2018-10-21T05:56:03.732Z,26.47
2018-10-21T05:58:31.920Z,28.07
2018-10-21T06:01:00.078Z,27.60
2018-10-21T06:03:28.249Z,28.37
2018-10-21T06:05:56.444Z,29.50
2018-10-21T06:08:24.660Z,30.00
2018-10-21T06:10:52.837Z,28.57
2018-10-21T06:13:21.020Z,30.10
2018-10-21T06:15:49.272Z,29.65
2018-10-21T06:18:21.301Z,27.17
2018-10-21T06:20:51.045Z,26.90
2018-10-21T06:23:19.221Z,25.82
2018-10-21T06:25:47.406Z,25.25
2018-10-21T06:28:15.614Z,25.35
2018-10-21T06:30:43.833Z,27.60
2018-10-21T06:33:12.075Z,28.30
2018-10-21T06:35:40.290Z,28.05
2018-10-21T06:38:08.458Z,28.38
2018-10-21T06:40:36.697Z,28.92
2018-10-21T06:43:04.961Z,27.93
2018-10-21T06:45:33.188Z,24.40
2018-10-21T06:48:01.332Z,23.53
2018-10-21T06:50:29.545Z,21.77
2018-10-21T08:43:48.142Z,19.85
2018-10-21T16:58:23.815Z,4.83
2018-10-21T17:00:52.099Z,5.30
2018-10-21T17:03:20.241Z,4.80
2018-10-21T17:05:48.312Z,4.53
2018-10-21T17:08:16.508Z,4.80
2018-10-21T17:10:44.733Z,6.05
2018-10-21T17:13:13.493Z,5.70
2018-10-21T17:15:41.580Z,5.60
2018-10-21T17:18:09.726Z,5.53
2018-10-21T17:20:37.878Z,5.70
2018-10-21T17:23:06.302Z,5.40
2018-10-21T17:25:34.471Z,5.13
2018-10-21T17:28:02.673Z,5.10
2018-10-21T17:30:30.821Z,5.80
2018-10-21T17:32:58.904Z,8.03
2018-10-21T17:35:27.070Z,13.65
2018-10-21T17:37:55.226Z,13.40
2018-10-21T17:40:23.397Z,14.60
2018-10-21T17:42:51.580Z,14.43
2018-10-21T17:45:19.738Z,12.98
2018-10-21T17:47:47.907Z,9.15
2018-10-21T17:50:16.056Z,6.80
2018-10-21T17:52:44.501Z,5.17
2018-10-21T17:55:13.033Z,5.30
2018-10-21T17:57:41.094Z,5.30
2018-10-21T18:00:10.316Z,5.50
2018-10-21T18:02:38.657Z,5.30
2018-10-21T18:05:08.405Z,5.90
2018-10-21T18:07:36.538Z,5.75
2018-10-21T18:10:05.148Z,9.15
2018-10-21T18:12:33.238Z,9.65
2018-10-21T18:15:01.389Z,10.85
2018-10-21T18:17:29.539Z,7.28
2018-10-21T18:19:57.723Z,7.47
2018-10-21T18:22:26.102Z,9.00
2018-10-21T18:24:54.266Z,6.95
2018-10-21T18:27:22.475Z,6.65
2018-10-21T18:29:50.635Z,7.65
2018-10-21T18:32:18.805Z,10.35
2018-10-21T18:34:46.941Z,8.83
2018-10-21T18:37:15.151Z,11.03
2018-10-21T18:39:43.234Z,9.28
2018-10-21T18:42:11.408Z,6.20
2018-10-21T18:44:39.554Z,5.93
2018-10-21T18:47:07.701Z,5.07
2018-10-21T18:49:35.880Z,5.10
2018-10-21T18:52:04.226Z,4.70
2018-10-21T18:54:32.348Z,4.80
2018-10-21T18:57:00.488Z,5.10
2018-10-21T18:59:28.634Z,5.47
2018-10-21T19:01:56.763Z,4.62
2018-10-21T19:04:24.894Z,4.37
2018-10-21T19:06:53.072Z,5.50
2018-10-21T19:09:21.213Z,4.75
2018-10-21T19:11:49.366Z,4.70
2018-10-21T19:14:17.537Z,4.10
2018-10-21T19:16:45.728Z,3.35
2018-10-21T19:19:13.960Z,3.92
2018-10-21T19:21:42.089Z,3.60
2018-10-21T19:24:10.242Z,3.50
2018-10-21T19:26:38.894Z,3.75
2018-10-21T19:29:07.076Z,4.33
2018-10-21T19:31:35.200Z,3.80
2018-10-21T19:34:03.351Z,4.20
2018-10-21T19:36:31.478Z,4.20
2018-10-21T19:38:59.626Z,4.37
2018-10-21T19:41:27.778Z,3.83
2018-10-21T19:43:55.955Z,4.67
2018-10-21T19:46:24.134Z,4.10
2018-10-21T19:48:52.294Z,4.43
2018-10-21T19:51:20.462Z,4.13
2018-10-21T19:53:48.667Z,5.07
2018-10-21T19:56:16.825Z,6.10
2018-10-21T19:58:45.020Z,8.70
2018-10-21T20:01:13.248Z,8.70
2018-10-21T20:03:41.361Z,9.67
2018-10-21T20:06:09.576Z,9.67
2018-10-21T20:08:37.746Z,8.77
2018-10-21T20:11:06.063Z,7.17
2018-10-21T20:13:34.221Z,7.30
2018-10-21T20:16:02.442Z,5.83
2018-10-21T20:18:30.574Z,4.30
2018-10-21T20:20:58.741Z,5.63
2018-10-21T20:23:26.906Z,5.13
2018-10-21T20:25:55.124Z,5.00
2018-10-21T20:28:23.324Z,5.57
2018-10-21T20:30:51.596Z,5.27
2018-10-21T20:33:19.781Z,5.77
2018-10-21T20:35:47.886Z,5.30
2018-10-21T20:38:16.150Z,4.17
2018-10-21T20:40:44.265Z,4.20
2018-10-21T20:43:12.477Z,4.80
2018-10-21T20:45:40.612Z,4.53
2018-10-21T20:48:08.809Z,4.20
2018-10-21T20:50:36.940Z,5.17
2018-10-21T20:53:05.408Z,3.53
2018-10-21T20:55:33.572Z,4.17
2018-10-21T20:58:01.765Z,4.47
2018-10-21T21:00:29.902Z,3.73
2018-10-21T21:02:58.028Z,3.47
2018-10-21T21:05:26.166Z,3.90
2018-10-21T21:07:54.302Z,4.20
2018-10-21T21:10:22.438Z,4.17
2018-10-21T21:12:50.603Z,3.40
2018-10-21T21:15:18.746Z,3.60
2018-10-21T21:17:46.874Z,4.33
2018-10-21T21:20:15.053Z,4.00
2018-10-21T21:22:43.170Z,4.50
2018-10-21T21:25:11.330Z,4.00
2018-10-21T21:27:39.457Z,3.60
2018-10-21T21:30:08.053Z,4.20
2018-10-21T21:32:36.121Z,3.77
2018-10-21T21:35:04.923Z,4.10
2018-10-21T21:37:33.054Z,4.97
2018-10-21T21:40:01.204Z,4.30
2018-10-21T21:42:29.319Z,4.20
2018-10-21T21:44:57.494Z,4.10
2018-10-21T21:47:25.654Z,3.80
2018-10-21T21:49:53.821Z,4.00
2018-10-21T21:52:21.986Z,4.50
2018-10-21T21:54:50.138Z,4.53
2018-10-21T21:57:18.391Z,4.47
2018-10-21T21:59:46.545Z,3.40
2018-10-21T22:02:14.713Z,3.47
2018-10-21T22:04:42.924Z,4.40
2018-10-21T22:07:11.145Z,4.60
2018-10-21T22:09:39.369Z,4.20
2018-10-21T22:12:07.549Z,4.50
2018-10-21T22:14:35.725Z,4.53
2018-10-21T22:17:04.009Z,4.30
2018-10-21T22:19:32.165Z,4.43
2018-10-21T22:22:00.404Z,3.80
2018-10-21T22:24:28.541Z,5.03
2018-10-21T22:26:56.748Z,4.90
2018-10-21T22:29:24.910Z,4.73
2018-10-21T22:31:53.083Z,4.60
2018-10-21T22:34:21.292Z,4.73
2018-10-21T22:36:49.458Z,4.80
2018-10-21T22:39:17.621Z,4.10
2018-10-21T22:41:45.818Z,5.70
2018-10-21T22:44:13.977Z,4.63
2018-10-21T22:46:42.178Z,4.90
2018-10-21T22:49:10.250Z,5.07
2018-10-21T22:51:38.402Z,4.57
2018-10-21T22:54:06.593Z,4.87
2018-10-21T22:56:34.709Z,4.63
2018-10-21T22:59:02.861Z,4.30
2018-10-21T23:01:31.013Z,4.87
2018-10-21T23:03:59.202Z,4.60
2018-10-21T23:06:27.269Z,4.50
2018-10-21T23:08:55.401Z,4.77
2018-10-21T23:11:23.550Z,4.50
2018-10-21T23:13:51.662Z,4.27
2018-10-21T23:16:19.794Z,4.80
2018-10-21T23:18:48.022Z,4.37
2018-10-21T23:21:16.088Z,4.77
2018-10-21T23:23:44.220Z,5.07
2018-10-21T23:26:12.354Z,4.03
2018-10-21T23:28:40.492Z,4.70
2018-10-21T23:31:08.617Z,4.70
2018-10-21T23:33:36.754Z,4.33
2018-10-21T23:36:05.080Z,4.80
2018-10-21T23:38:33.181Z,5.00
2018-10-21T23:41:01.314Z,5.33
2018-10-21T23:43:29.490Z,4.70
2018-10-21T23:45:57.663Z,4.83
2018-10-21T23:48:25.837Z,4.43
2018-10-21T23:50:53.964Z,4.80
2018-10-21T23:53:22.097Z,3.97
2018-10-21T23:55:50.226Z,4.53
2018-10-21T23:58:18.902Z,4.90
